www.cux-wetter.de
Wetterdaten: Woche 29.01.07 - 04.02.07 (KW5)
Datum Zeit Temp. A. Feuchte A. Luftdruck Regen Wind Richtung Sonnenschein Solar Taupunkt Windchill Windben
29.01.2007 00:00 6,8 C 87 % 1010,5 hPa 0,0 l/m 33,5 km/h (5 Bft) NW 0,00 h 0 W/m 4,8 C -4,5 C 33,5 km/h (5 Bft)
29.01.2007 01:00 6,5 C 89 % 1011,5 hPa 0,0 l/m 33,0 km/h (5 Bft) N-NW 0,00 h 0 W/m 4,7 C -5,0 C 33,0 km/h (5 Bft)
29.01.2007 02:00 6,4 C 91 % 1011,8 hPa 0,0 l/m 30,8 km/h (5 Bft) NW 0,00 h 0 W/m 5,0 C -4,6 C 30,8 km/h (5 Bft)
29.01.2007 03:00 6,2 C 93 % 1012,5 hPa 0,0 l/m 27,6 km/h (5 Bft) NW 0,00 h 0 W/m 5,1 C -4,0 C 27,6 km/h (5 Bft)
29.01.2007 04:00 6,6 C 93 % 1012,5 hPa 0,0 l/m 32,6 km/h (5 Bft) NW 0,00 h 0 W/m 5,4 C -4,7 C 32,6 km/h (5 Bft)
29.01.2007 05:00 6,4 C 94 % 1012,5 hPa 1,8 l/m 33,2 km/h (5 Bft) NW 0,00 h 0 W/m 5,6 C -5,0 C 33,2 km/h (5 Bft)
29.01.2007 06:00 6,5 C 96 % 1012,5 hPa 0,3 l/m 34,3 km/h (5 Bft) NW 0,00 h 0 W/m 5,8 C -5,1 C 34,3 km/h (5 Bft)
29.01.2007 07:00 5,9 C 94 % 1013,8 hPa 0,6 l/m 35,3 km/h (5 Bft) N 0,00 h 0 W/m 5,0 C -6,1 C 35,3 km/h (5 Bft)
29.01.2007 08:00 5,6 C 93 % 1014,5 hPa 0,0 l/m 24,1 km/h (4 Bft) N 0,00 h 0 W/m 4,5 C -3,9 C 24,1 km/h (4 Bft)
29.01.2007 09:00 5,4 C 88 % 1015,5 hPa 0,0 l/m 27,1 km/h (5 Bft) N 0,00 h 0 W/m 3,5 C -4,8 C 27,1 km/h (5 Bft)
29.01.2007 10:00 6,1 C 86 % 1016,5 hPa 0,0 l/m 24,3 km/h (4 Bft) N 0,00 h 0 W/m 3,9 C -3,2 C 24,3 km/h (4 Bft)
29.01.2007 11:00 6,9 C 82 % 1017,5 hPa 0,0 l/m 23,4 km/h (4 Bft) N-NW 0,00 h 0 W/m 4,1 C -1,8 C 23,4 km/h (4 Bft)
29.01.2007 12:00 7,0 C 83 % 1018,0 hPa 0,0 l/m 19,6 km/h (3 Bft) N-NW 0,00 h 0 W/m 4,3 C -0,4 C 19,6 km/h (3 Bft)
29.01.2007 13:00 7,4 C 82 % 1018,5 hPa 0,0 l/m 18,3 km/h (3 Bft) N-NW 0,00 h 0 W/m 4,5 C 0,6 C 18,3 km/h (3 Bft)
29.01.2007 14:00 7,3 C 83 % 1018,5 hPa 0,0 l/m 20,4 km/h (4 Bft) N-NW 0,00 h 0 W/m 4,6 C -0,3 C 20,4 km/h (4 Bft)
29.01.2007 15:00 6,9 C 83 % 1019,0 hPa 0,0 l/m 24,8 km/h (4 Bft) N-NW 0,00 h 0 W/m 4,2 C -2,2 C 24,8 km/h (4 Bft)
29.01.2007 16:00 6,2 C 85 % 1019,5 hPa 0,0 l/m 22,9 km/h (4 Bft) N-NW 0,00 h 0 W/m 3,8 C -2,6 C 22,9 km/h (4 Bft)
29.01.2007 17:00 5,4 C 88 % 1019,5 hPa 0,0 l/m 18,3 km/h (3 Bft) NW 0,00 h 0 W/m 3,5 C -2,0 C 18,3 km/h (3 Bft)
29.01.2007 18:00 4,9 C 88 % 1020,3 hPa 0,0 l/m 18,5 km/h (3 Bft) NW 0,00 h 0 W/m 3,0 C -2,7 C 18,5 km/h (3 Bft)
29.01.2007 19:00 4,8 C 89 % 1020,5 hPa 0,0 l/m 14,7 km/h (3 Bft) NW 0,00 h 0 W/m 3,2 C -0,9 C 14,7 km/h (3 Bft)
29.01.2007 20:00 5,3 C 90 % 1020,3 hPa 0,0 l/m 15,2 km/h (3 Bft) W-NW 0,00 h 0 W/m 3,7 C -0,6 C 15,2 km/h (3 Bft)
29.01.2007 21:00 5,6 C 91 % 1020,5 hPa 0,0 l/m 19,9 km/h (4 Bft) NW 0,00 h 0 W/m 4,2 C -2,3 C 19,9 km/h (4 Bft)
29.01.2007 22:00 5,6 C 92 % 1019,8 hPa 0,0 l/m 20,3 km/h (4 Bft) W-NW 0,00 h 0 W/m 4,5 C -2,4 C 20,3 km/h (4 Bft)
29.01.2007 23:00 5,8 C 93 % 1019,5 hPa 0,0 l/m 19,0 km/h (3 Bft) W-NW 0,00 h 0 W/m 4,8 C -1,7 C 19,0 km/h (3 Bft)
30.01.2007 00:00 6,3 C 95 % 1019,0 hPa 0,0 l/m 23,3 km/h (4 Bft) W-NW 0,00 h 0 W/m 5,5 C -2,6 C 23,3 km/h (4 Bft)
30.01.2007 01:00 6,6 C 98 % 1018,5 hPa 0,0 l/m 23,6 km/h (4 Bft) NW 0,00 h 0 W/m 6,2 C -2,4 C 23,6 km/h (4 Bft)
30.01.2007 02:00 6,8 C 98 % 1018,5 hPa 0,0 l/m 23,0 km/h (4 Bft) NW 0,00 h 0 W/m 6,5 C -1,8 C 23,0 km/h (4 Bft)
30.01.2007 03:00 6,7 C 98 % 1018,5 hPa 0,0 l/m 25,7 km/h (4 Bft) NW 0,00 h 0 W/m 6,4 C -2,8 C 25,7 km/h (4 Bft)
30.01.2007 04:00 6,7 C 98 % 1018,5 hPa 0,0 l/m 27,1 km/h (5 Bft) NW 0,00 h 0 W/m 6,3 C -3,2 C 27,1 km/h (5 Bft)
30.01.2007 05:00 6,8 C 96 % 1018,5 hPa 0,0 l/m 29,5 km/h (5 Bft) NW 0,00 h 0 W/m 6,1 C -3,8 C 29,5 km/h (5 Bft)
30.01.2007 06:00 6,6 C 95 % 1018,5 hPa 0,0 l/m 31,1 km/h (5 Bft) NW 0,00 h 0 W/m 5,9 C -4,4 C 31,1 km/h (5 Bft)
30.01.2007 07:00 6,5 C 94 % 1018,5 hPa 0,0 l/m 29,2 km/h (5 Bft) NW 0,00 h 0 W/m 5,6 C -4,0 C 29,2 km/h (5 Bft)
30.01.2007 08:00 6,6 C 92 % 1019,3 hPa 0,0 l/m 24,6 km/h (4 Bft) NW 0,00 h 0 W/m 5,4 C -2,6 C 24,6 km/h (4 Bft)
30.01.2007 09:00 6,8 C 91 % 1019,5 hPa 0,0 l/m 25,5 km/h (4 Bft) NW 0,00 h 0 W/m 5,4 C -2,5 C 25,5 km/h (4 Bft)
30.01.2007 10:00 7,3 C 88 % 1020,3 hPa 0,0 l/m 27,6 km/h (5 Bft) NW 0,00 h 0 W/m 5,5 C -2,5 C 27,6 km/h (5 Bft)
30.01.2007 11:00 7,7 C 84 % 1020,5 hPa 0,0 l/m 28,0 km/h (5 Bft) NW 0,00 h 0 W/m 5,2 C -2,1 C 28,0 km/h (5 Bft)
30.01.2007 12:00 7,6 C 82 % 1020,5 hPa 0,0 l/m 24,4 km/h (4 Bft) NW 0,00 h 0 W/m 4,8 C -1,2 C 24,4 km/h (4 Bft)
30.01.2007 13:00 7,6 C 82 % 1020,5 hPa 0,0 l/m 23,7 km/h (4 Bft) NW 0,00 h 0 W/m 4,6 C -1,0 C 23,7 km/h (4 Bft)
30.01.2007 14:00 7,3 C 88 % 1020,0 hPa 0,0 l/m 23,0 km/h (4 Bft) NW 0,00 h 0 W/m 5,4 C -1,2 C 23,0 km/h (4 Bft)
30.01.2007 15:00 7,0 C 92 % 1020,5 hPa 0,0 l/m 23,3 km/h (4 Bft) W-NW 0,00 h 0 W/m 5,8 C -1,6 C 23,3 km/h (4 Bft)
30.01.2007 16:00 6,8 C 93 % 1020,5 hPa 0,0 l/m 23,5 km/h (4 Bft) W-NW 0,00 h 0 W/m 5,7 C -2,0 C 23,5 km/h (4 Bft)
30.01.2007 17:00 6,6 C 91 % 1019,8 hPa 0,0 l/m 21,9 km/h (4 Bft) W-NW 0,00 h 0 W/m 5,2 C -1,8 C 21,9 km/h (4 Bft)
30.01.2007 18:00 6,6 C 86 % 1020,0 hPa 0,0 l/m 22,8 km/h (4 Bft) W-NW 0,00 h 0 W/m 4,3 C -2,1 C 22,8 km/h (4 Bft)
30.01.2007 19:00 6,5 C 89 % 1019,5 hPa 0,0 l/m 23,3 km/h (4 Bft) W 0,00 h 0 W/m 4,8 C -2,2 C 23,3 km/h (4 Bft)
30.01.2007 20:00 6,5 C 88 % 1019,3 hPa 0,0 l/m 27,3 km/h (5 Bft) W 0,00 h 0 W/m 4,7 C -3,5 C 27,3 km/h (5 Bft)
30.01.2007 21:00 6,2 C 91 % 1019,0 hPa 0,0 l/m 30,1 km/h (5 Bft) W 0,00 h 0 W/m 4,8 C -4,6 C 30,1 km/h (5 Bft)
30.01.2007 22:00 6,1 C 85 % 1018,5 hPa 0,0 l/m 28,3 km/h (5 Bft) W 0,00 h 0 W/m 3,8 C -4,4 C 28,3 km/h (5 Bft)
30.01.2007 23:00 6,1 C 86 % 1018,3 hPa 0,0 l/m 28,8 km/h (5 Bft) W 0,00 h 0 W/m 3,9 C -4,5 C 28,8 km/h (5 Bft)
31.01.2007 00:00 6,0 C 88 % 1017,5 hPa 0,0 l/m 26,8 km/h (4 Bft) W 0,00 h 0 W/m 4,1 C -4,0 C 26,8 km/h (4 Bft)
31.01.2007 01:00 6,1 C 88 % 1017,3 hPa 0,0 l/m 22,9 km/h (4 Bft) W-NW 0,00 h 0 W/m 4,2 C -2,8 C 22,9 km/h (4 Bft)
31.01.2007 02:00 6,0 C 87 % 1016,5 hPa 0,0 l/m 25,7 km/h (4 Bft) W 0,00 h 0 W/m 4,0 C -3,7 C 25,7 km/h (4 Bft)
31.01.2007 03:00 5,9 C 87 % 1015,5 hPa 0,0 l/m 31,1 km/h (5 Bft) W 0,00 h 0 W/m 3,9 C -5,4 C 31,1 km/h (5 Bft)
31.01.2007 04:00 5,9 C 87 % 1015,3 hPa 0,0 l/m 31,8 km/h (5 Bft) W 0,00 h 0 W/m 3,8 C -5,5 C 31,8 km/h (5 Bft)
31.01.2007 05:00 5,9 C 89 % 1014,5 hPa 0,0 l/m 29,8 km/h (5 Bft) W 0,00 h 0 W/m 4,1 C -5,1 C 29,8 km/h (5 Bft)
31.01.2007 06:00 5,8 C 88 % 1014,0 hPa 0,0 l/m 34,0 km/h (5 Bft) W 0,00 h 0 W/m 3,9 C -6,2 C 34,0 km/h (5 Bft)
31.01.2007 07:00 5,6 C 89 % 1013,5 hPa 0,0 l/m 34,5 km/h (5 Bft) W 0,00 h 0 W/m 4,0 C -6,4 C 34,5 km/h (5 Bft)
31.01.2007 08:00 5,8 C 90 % 1013,0 hPa 0,0 l/m 40,1 km/h (6 Bft) W 0,00 h 0 W/m 4,2 C -7,4 C 40,1 km/h (6 Bft)
31.01.2007 09:00 5,8 C 89 % 1012,5 hPa 0,0 l/m 40,9 km/h (6 Bft) W 0,00 h 0 W/m 4,1 C -7,5 C 40,9 km/h (6 Bft)
31.01.2007 10:00 5,8 C 88 % 1012,0 hPa 0,0 l/m 39,0 km/h (6 Bft) W 0,00 h 0 W/m 4,1 C -7,1 C 39,0 km/h (6 Bft)
31.01.2007 11:00 6,1 C 90 % 1011,5 hPa 0,0 l/m 39,5 km/h (6 Bft) W 0,00 h 0 W/m 4,5 C -6,8 C 39,5 km/h (6 Bft)
31.01.2007 12:00 6,6 C 91 % 1010,5 hPa 0,0 l/m 40,9 km/h (6 Bft) W 0,00 h 0 W/m 5,2 C -6,2 C 40,9 km/h (6 Bft)
31.01.2007 13:00 6,7 C 92 % 1010,3 hPa 0,0 l/m 41,1 km/h (6 Bft) W 0,00 h 0 W/m 5,6 C -6,1 C 41,1 km/h (6 Bft)
31.01.2007 14:00 6,5 C 97 % 1009,5 hPa 1,2 l/m 39,0 km/h (6 Bft) W-NW 0,00 h 0 W/m 6,0 C -6,2 C 39,0 km/h (6 Bft)
31.01.2007 15:00 6,6 C 98 % 1009,8 hPa 0,6 l/m 37,3 km/h (5 Bft) W-NW 0,00 h 0 W/m 6,2 C -5,7 C 37,3 km/h (5 Bft)
31.01.2007 16:00 6,7 C 99 % 1009,5 hPa 0,3 l/m 40,0 km/h (6 Bft) W 0,00 h 0 W/m 6,6 C -6,0 C 40,0 km/h (6 Bft)
31.01.2007 17:00 6,8 C 99 % 1010,5 hPa 0,0 l/m 34,8 km/h (5 Bft) W-NW 0,00 h 0 W/m 6,7 C -4,9 C 34,8 km/h (5 Bft)
31.01.2007 18:00 7,2 C 99 % 1011,3 hPa 0,0 l/m 31,9 km/h (5 Bft) W-NW 0,00 h 0 W/m 7,0 C -3,7 C 31,9 km/h (5 Bft)
31.01.2007 19:00 7,1 C 99 % 1011,5 hPa 0,0 l/m 33,0 km/h (5 Bft) NW 0,00 h 0 W/m 7,0 C -4,1 C 33,0 km/h (5 Bft)
31.01.2007 20:00 6,6 C 99 % 1012,5 hPa 0,0 l/m 28,9 km/h (5 Bft) NW 0,00 h 0 W/m 6,3 C -3,9 C 28,9 km/h (5 Bft)
31.01.2007 21:00 6,4 C 98 % 1013,5 hPa 0,0 l/m 28,4 km/h (5 Bft) NW 0,00 h 0 W/m 6,0 C -4,0 C 28,4 km/h (5 Bft)
31.01.2007 22:00 6,5 C 96 % 1014,5 hPa 0,0 l/m 31,6 km/h (5 Bft) NW 0,00 h 0 W/m 5,9 C -4,6 C 31,6 km/h (5 Bft)
31.01.2007 23:00 6,3 C 95 % 1015,8 hPa 0,0 l/m 28,6 km/h (5 Bft) NW 0,00 h 0 W/m 5,6 C -4,1 C 28,6 km/h (5 Bft)
01.02.2007 00:00 6,0 C 95 % 1016,5 hPa 0,0 l/m 29,0 km/h (5 Bft) N-NW 0,00 h 0 W/m 5,3 C -4,7 C 29,0 km/h (5 Bft)
01.02.2007 01:00 6,1 C 95 % 1017,5 hPa 0,3 l/m 28,3 km/h (5 Bft) NW 0,00 h 0 W/m 5,3 C -4,4 C 28,3 km/h (5 Bft)
01.02.2007 02:00 6,1 C 95 % 1018,3 hPa 0,0 l/m 27,0 km/h (5 Bft) NW 0,00 h 0 W/m 5,4 C -4,0 C 27,0 km/h (5 Bft)
01.02.2007 03:00 5,9 C 96 % 1019,0 hPa 0,0 l/m 20,2 km/h (4 Bft) N-NW 0,00 h 0 W/m 5,2 C -2,1 C 20,2 km/h (4 Bft)
01.02.2007 04:00 5,7 C 96 % 1019,8 hPa 0,0 l/m 21,0 km/h (4 Bft) NW 0,00 h 0 W/m 5,1 C -2,6 C 21,0 km/h (4 Bft)
01.02.2007 05:00 5,4 C 97 % 1021,0 hPa 0,0 l/m 19,6 km/h (3 Bft) N-NW 0,00 h 0 W/m 5,0 C -2,4 C 19,6 km/h (3 Bft)
01.02.2007 06:00 5,6 C 97 % 1021,5 hPa 0,0 l/m 18,2 km/h (3 Bft) N-NW 0,00 h 0 W/m 5,2 C -1,6 C 18,2 km/h (3 Bft)
01.02.2007 07:00 5,9 C 97 % 1022,3 hPa 0,0 l/m 19,5 km/h (3 Bft) N-NW 0,00 h 0 W/m 5,4 C -1,9 C 19,5 km/h (3 Bft)
01.02.2007 08:00 6,1 C 97 % 1023,0 hPa 0,0 l/m 16,2 km/h (3 Bft) NW 0,00 h 0 W/m 5,7 C -0,1 C 16,2 km/h (3 Bft)
01.02.2007 09:00 6,4 C 97 % 1023,5 hPa 0,0 l/m 14,9 km/h (3 Bft) NW 0,00 h 0 W/m 5,9 C 0,8 C 14,9 km/h (3 Bft)
01.02.2007 10:00 7,3 C 96 % 1024,5 hPa 0,0 l/m 15,8 km/h (3 Bft) NW 0,00 h 0 W/m 6,7 C 1,5 C 15,8 km/h (3 Bft)
01.02.2007 11:00 7,5 C 95 % 1024,5 hPa 0,0 l/m 12,9 km/h (3 Bft) W 0,00 h 0 W/m 6,8 C 3,2 C 12,9 km/h (3 Bft)
01.02.2007 12:00 7,9 C 95 % 1025,0 hPa 0,0 l/m 12,1 km/h (2 Bft) W-NW 0,00 h 0 W/m 7,1 C 4,0 C 12,1 km/h (2 Bft)
01.02.2007 13:00 7,8 C 94 % 1024,8 hPa 0,0 l/m 16,2 km/h (3 Bft) W-NW 0,00 h 0 W/m 6,8 C 2,2 C 16,2 km/h (3 Bft)
01.02.2007 14:00 7,6 C 96 % 1024,5 hPa 0,0 l/m 10,8 km/h (2 Bft) W 0,00 h 0 W/m 6,9 C 4,4 C 10,8 km/h (2 Bft)
01.02.2007 15:00 7,5 C 95 % 1024,8 hPa 0,3 l/m 18,4 km/h (3 Bft) W 0,00 h 0 W/m 6,8 C 0,8 C 18,4 km/h (3 Bft)
01.02.2007 16:00 6,9 C 98 % 1024,5 hPa 0,6 l/m 19,0 km/h (3 Bft) W-SW 0,00 h 0 W/m 6,6 C -0,4 C 19,0 km/h (3 Bft)
01.02.2007 17:00 7,1 C 99 % 1024,5 hPa 0,3 l/m 26,4 km/h (4 Bft) W 0,00 h 0 W/m 6,9 C -2,5 C 26,4 km/h (4 Bft)
01.02.2007 18:00 7,2 C 99 % 1024,5 hPa 0,0 l/m 20,6 km/h (4 Bft) W-NW 0,00 h 0 W/m 7,1 C -0,5 C 20,6 km/h (4 Bft)
01.02.2007 19:00 7,2 C 99 % 1024,5 hPa 0,3 l/m 18,5 km/h (3 Bft) W-NW 0,00 h 0 W/m 7,1 C 0,3 C 18,5 km/h (3 Bft)
01.02.2007 20:00 7,2 C 99 % 1025,0 hPa 0,0 l/m 17,7 km/h (3 Bft) W-NW 0,00 h 0 W/m 7,0 C 0,5 C 17,7 km/h (3 Bft)
01.02.2007 21:00 7,2 C 99 % 1025,3 hPa 0,0 l/m 16,4 km/h (3 Bft) NW 0,00 h 0 W/m 7,0 C 1,0 C 16,4 km/h (3 Bft)
01.02.2007 22:00 6,8 C 99 % 1025,5 hPa 0,0 l/m 15,6 km/h (3 Bft) NW 0,00 h 0 W/m 6,7 C 1,0 C 15,6 km/h (3 Bft)
01.02.2007 23:00 6,0 C 99 % 1025,5 hPa 0,0 l/m 15,8 km/h (3 Bft) W-NW 0,00 h 0 W/m 5,8 C -0,1 C 15,8 km/h (3 Bft)
02.02.2007 00:00 5,8 C 99 % 1025,8 hPa 0,0 l/m 14,9 km/h (3 Bft) W-NW 0,00 h 0 W/m 5,7 C 0,2 C 14,9 km/h (3 Bft)
02.02.2007 01:00 5,8 C 99 % 1025,8 hPa 0,0 l/m 14,1 km/h (3 Bft) W-NW 0,00 h 0 W/m 5,7 C 0,5 C 14,1 km/h (3 Bft)
02.02.2007 02:00 5,8 C 99 % 1026,0 hPa 0,0 l/m 13,3 km/h (3 Bft) W 0,00 h 0 W/m 5,7 C 1,0 C 13,3 km/h (3 Bft)
02.02.2007 03:00 6,1 C 99 % 1025,5 hPa 0,0 l/m 12,7 km/h (3 Bft) W 0,00 h 0 W/m 5,9 C 1,6 C 12,7 km/h (3 Bft)
02.02.2007 04:00 6,1 C 99 % 1025,5 hPa 0,0 l/m 16,8 km/h (3 Bft) W 0,00 h 0 W/m 6,0 C -0,4 C 16,8 km/h (3 Bft)
02.02.2007 05:00 6,1 C 99 % 1025,5 hPa 0,0 l/m 15,2 km/h (3 Bft) W 0,00 h 0 W/m 5,9 C 0,3 C 15,2 km/h (3 Bft)
02.02.2007 06:00 6,5 C 99 % 1025,5 hPa 0,0 l/m 20,7 km/h (4 Bft) W 0,00 h 0 W/m 6,3 C -1,5 C 20,7 km/h (4 Bft)
02.02.2007 07:00 6,3 C 99 % 1025,0 hPa 0,0 l/m 23,8 km/h (4 Bft) W 0,00 h 0 W/m 6,1 C -2,8 C 23,8 km/h (4 Bft)
02.02.2007 08:00 5,8 C 99 % 1025,3 hPa 0,0 l/m 24,9 km/h (4 Bft) W-SW 0,00 h 0 W/m 5,6 C -3,9 C 24,9 km/h (4 Bft)
02.02.2007 09:00 5,9 C 99 % 1025,5 hPa 0,0 l/m 27,3 km/h (5 Bft) W 0,00 h 0 W/m 5,7 C -4,5 C 27,3 km/h (5 Bft)
02.02.2007 10:00 5,8 C 99 % 1025,3 hPa 0,0 l/m 31,0 km/h (5 Bft) W 0,00 h 0 W/m 5,7 C -5,4 C 31,0 km/h (5 Bft)
02.02.2007 11:00 6,5 C 99 % 1024,5 hPa 0,0 l/m 30,9 km/h (5 Bft) W 0,00 h 0 W/m 6,4 C -4,5 C 30,9 km/h (5 Bft)
02.02.2007 12:00 7,3 C 99 % 1024,0 hPa 0,0 l/m 30,1 km/h (5 Bft) W-SW 0,00 h 0 W/m 7,1 C -3,2 C 30,1 km/h (5 Bft)
02.02.2007 13:00 7,1 C 99 % 1023,5 hPa 0,0 l/m 28,9 km/h (5 Bft) W-NW 0,00 h 0 W/m 7,0 C -3,1 C 28,9 km/h (5 Bft)
02.02.2007 14:00 6,8 C 99 % 1023,5 hPa 0,0 l/m 27,4 km/h (5 Bft) W 0,00 h 0 W/m 6,7 C -3,2 C 27,4 km/h (5 Bft)
02.02.2007 15:00 6,8 C 99 % 1023,5 hPa 0,6 l/m 28,1 km/h (5 Bft) W-NW 0,00 h 0 W/m 6,7 C -3,4 C 28,1 km/h (5 Bft)
02.02.2007 16:00 7,0 C 99 % 1023,5 hPa 0,9 l/m 26,2 km/h (4 Bft) NW 0,00 h 0 W/m 6,9 C -2,5 C 26,2 km/h (4 Bft)
02.02.2007 17:00 6,6 C 99 % 1024,8 hPa 0,0 l/m 31,9 km/h (5 Bft) N-NW 0,00 h 0 W/m 6,5 C -4,6 C 31,9 km/h (5 Bft)
02.02.2007 18:00 6,1 C 99 % 1025,5 hPa 0,0 l/m 31,3 km/h (5 Bft) N-NW 0,00 h 0 W/m 6,0 C -5,1 C 31,3 km/h (5 Bft)
02.02.2007 19:00 6,1 C 99 % 1026,0 hPa 0,0 l/m 28,2 km/h (5 Bft) NW 0,00 h 0 W/m 5,9 C -4,3 C 28,2 km/h (5 Bft)
02.02.2007 20:00 6,0 C 97 % 1026,5 hPa 0,0 l/m 31,7 km/h (5 Bft) NW 0,00 h 0 W/m 5,5 C -5,4 C 31,7 km/h (5 Bft)
02.02.2007 21:00 6,0 C 95 % 1027,3 hPa 0,0 l/m 31,7 km/h (5 Bft) NW 0,00 h 0 W/m 5,3 C -5,4 C 31,7 km/h (5 Bft)
02.02.2007 22:00 6,0 C 95 % 1027,5 hPa 0,0 l/m 30,4 km/h (5 Bft) N-NW 0,00 h 0 W/m 5,2 C -5,1 C 30,4 km/h (5 Bft)
02.02.2007 23:00 6,1 C 92 % 1027,8 hPa 0,0 l/m 28,0 km/h (5 Bft) N-NW 0,00 h 0 W/m 4,9 C -4,1 C 28,0 km/h (5 Bft)
03.02.2007 00:00 6,3 C 92 % 1028,5 hPa 0,0 l/m 27,8 km/h (5 Bft) N-NW 0,00 h 0 W/m 5,1 C -3,9 C 27,8 km/h (5 Bft)
03.02.2007 01:00 6,4 C 91 % 1028,5 hPa 0,0 l/m 28,0 km/h (5 Bft) NW 0,00 h 0 W/m 5,1 C -3,8 C 28,0 km/h (5 Bft)
03.02.2007 02:00 6,6 C 92 % 1029,5 hPa 0,0 l/m 33,5 km/h (5 Bft) NW 0,00 h 0 W/m 5,4 C -4,9 C 33,5 km/h (5 Bft)
03.02.2007 03:00 6,5 C 92 % 1029,3 hPa 0,0 l/m 29,7 km/h (5 Bft) N-NW 0,00 h 0 W/m 5,3 C -4,1 C 29,7 km/h (5 Bft)
03.02.2007 04:00 6,4 C 94 % 1029,5 hPa 0,0 l/m 29,0 km/h (5 Bft) N-NW 0,00 h 0 W/m 5,5 C -4,0 C 29,0 km/h (5 Bft)
03.02.2007 05:00 6,7 C 93 % 1029,5 hPa 0,3 l/m 33,1 km/h (5 Bft) N-NW 0,00 h 0 W/m 5,5 C -4,7 C 33,1 km/h (5 Bft)
03.02.2007 06:00 6,5 C 94 % 1029,5 hPa 0,0 l/m 30,0 km/h (5 Bft) N-NW 0,00 h 0 W/m 5,5 C -4,2 C 30,0 km/h (5 Bft)
03.02.2007 07:00 6,3 C 95 % 1030,3 hPa 0,0 l/m 28,3 km/h (5 Bft) N-NW 0,00 h 0 W/m 5,5 C -4,0 C 28,3 km/h (5 Bft)
03.02.2007 08:00 6,8 C 95 % 1030,5 hPa 0,0 l/m 23,8 km/h (4 Bft) N-NW 0,00 h 0 W/m 5,9 C -2,2 C 23,8 km/h (4 Bft)
03.02.2007 09:00 7,6 C 92 % 1031,0 hPa 0,0 l/m 26,3 km/h (4 Bft) N-NW 0,00 h 0 W/m 6,3 C -1,8 C 26,3 km/h (4 Bft)
03.02.2007 10:00 7,6 C 93 % 1031,5 hPa 0,0 l/m 29,2 km/h (5 Bft) N-NW 0,00 h 0 W/m 6,4 C -2,4 C 29,2 km/h (5 Bft)
03.02.2007 11:00 7,8 C 91 % 1031,5 hPa 0,0 l/m 31,6 km/h (5 Bft) N-NW 0,00 h 0 W/m 6,4 C -2,8 C 31,6 km/h (5 Bft)
03.02.2007 12:00 7,5 C 92 % 1031,5 hPa 0,0 l/m 26,0 km/h (4 Bft) N-NW 0,00 h 0 W/m 6,3 C -1,9 C 26,0 km/h (4 Bft)
03.02.2007 13:00 7,7 C 91 % 1031,0 hPa 0,0 l/m 25,1 km/h (4 Bft) NW 0,00 h 0 W/m 6,3 C -1,2 C 25,1 km/h (4 Bft)
03.02.2007 14:00 7,8 C 89 % 1030,5 hPa 0,0 l/m 26,2 km/h (4 Bft) N-NW 0,00 h 0 W/m 6,1 C -1,5 C 26,2 km/h (4 Bft)
03.02.2007 15:00 7,5 C 90 % 1030,5 hPa 0,0 l/m 24,0 km/h (4 Bft) N 0,00 h 0 W/m 6,0 C -1,2 C 24,0 km/h (4 Bft)
03.02.2007 16:00 7,3 C 92 % 1030,5 hPa 0,0 l/m 23,0 km/h (4 Bft) N-NW 0,00 h 0 W/m 6,0 C -1,2 C 23,0 km/h (4 Bft)
03.02.2007 17:00 7,1 C 94 % 1031,3 hPa 0,0 l/m 21,4 km/h (4 Bft) N-NW 0,00 h 0 W/m 6,2 C -0,9 C 21,4 km/h (4 Bft)
03.02.2007 18:00 6,9 C 96 % 1031,5 hPa 0,0 l/m 17,4 km/h (3 Bft) N-NW 0,00 h 0 W/m 6,3 C 0,3 C 17,4 km/h (3 Bft)
03.02.2007 19:00 6,8 C 97 % 1031,5 hPa 0,0 l/m 18,5 km/h (3 Bft) N 0,00 h 0 W/m 6,4 C -0,2 C 18,5 km/h (3 Bft)
03.02.2007 20:00 6,9 C 97 % 1032,3 hPa 0,0 l/m 17,2 km/h (3 Bft) N-NW 0,00 h 0 W/m 6,4 C 0,5 C 17,2 km/h (3 Bft)
03.02.2007 21:00 6,8 C 98 % 1032,5 hPa 0,0 l/m 16,5 km/h (3 Bft) N-NW 0,00 h 0 W/m 6,5 C 0,8 C 16,5 km/h (3 Bft)
03.02.2007 22:00 6,8 C 98 % 1032,5 hPa 0,3 l/m 16,5 km/h (3 Bft) N 0,00 h 0 W/m 6,5 C 0,7 C 16,5 km/h (3 Bft)
03.02.2007 23:00 6,6 C 98 % 1032,5 hPa 0,0 l/m 12,6 km/h (3 Bft) N 0,00 h 0 W/m 6,3 C 2,4 C 12,6 km/h (3 Bft)
04.02.2007 00:00 6,5 C 98 % 1032,5 hPa 0,0 l/m 12,3 km/h (2 Bft) N 0,00 h 0 W/m 6,2 C 2,4 C 12,3 km/h (2 Bft)
04.02.2007 01:00 6,4 C 98 % 1032,5 hPa 0,0 l/m 19,3 km/h (3 Bft) N-NW 0,00 h 0 W/m 6,1 C -1,1 C 19,3 km/h (3 Bft)
04.02.2007 02:00 6,2 C 98 % 1032,5 hPa 0,0 l/m 18,3 km/h (3 Bft) N-NW 0,00 h 0 W/m 5,9 C -0,9 C 18,3 km/h (3 Bft)
04.02.2007 03:00 6,0 C 98 % 1032,0 hPa 0,0 l/m 16,2 km/h (3 Bft) N-NW 0,00 h 0 W/m 5,7 C -0,2 C 16,2 km/h (3 Bft)
04.02.2007 04:00 6,3 C 96 % 1031,5 hPa 0,0 l/m 14,5 km/h (3 Bft) NW 0,00 h 0 W/m 5,6 C 0,9 C 14,5 km/h (3 Bft)
04.02.2007 05:00 6,0 C 95 % 1031,5 hPa 0,0 l/m 13,5 km/h (3 Bft) NW 0,00 h 0 W/m 5,2 C 1,0 C 13,5 km/h (3 Bft)
04.02.2007 06:00 5,9 C 97 % 1031,5 hPa 0,0 l/m 13,3 km/h (3 Bft) NW 0,00 h 0 W/m 5,5 C 1,1 C 13,3 km/h (3 Bft)
04.02.2007 07:00 6,1 C 97 % 1031,5 hPa 0,0 l/m 13,4 km/h (3 Bft) N-NW 0,00 h 0 W/m 5,6 C 1,3 C 13,4 km/h (3 Bft)
04.02.2007 08:00 7,4 C 94 % 1031,5 hPa 0,0 l/m 8,1 km/h (2 Bft) NW 0,00 h 0 W/m 6,5 C 6,1 C 8,1 km/h (2 Bft)
04.02.2007 09:00 7,8 C 91 % 1031,3 hPa 0,0 l/m 11,0 km/h (2 Bft) NW 0,00 h 0 W/m 6,3 C 4,5 C 11,0 km/h (2 Bft)
04.02.2007 10:00 7,6 C 87 % 1030,5 hPa 0,0 l/m 11,0 km/h (2 Bft) NW 0,00 h 0 W/m 5,5 C 4,3 C 11,0 km/h (2 Bft)
04.02.2007 11:00 6,8 C 88 % 1030,5 hPa 0,0 l/m 25,0 km/h (4 Bft) W-NW 0,00 h 0 W/m 4,9 C -2,4 C 25,0 km/h (4 Bft)
04.02.2007 12:00 6,6 C 87 % 1029,5 hPa 0,0 l/m 29,8 km/h (5 Bft) W-NW 0,00 h 0 W/m 4,6 C -4,0 C 29,8 km/h (5 Bft)
04.02.2007 13:00 6,6 C 86 % 1029,0 hPa 0,0 l/m 29,5 km/h (5 Bft) W-NW 0,00 h 0 W/m 4,5 C -4,0 C 29,5 km/h (5 Bft)
04.02.2007 14:00 6,4 C 87 % 1028,0 hPa 0,0 l/m 28,5 km/h (5 Bft) W-NW 0,00 h 0 W/m 4,3 C -4,0 C 28,5 km/h (5 Bft)
04.02.2007 15:00 6,4 C 88 % 1027,0 hPa 0,0 l/m 25,2 km/h (4 Bft) W 0,00 h 0 W/m 4,5 C -3,1 C 25,2 km/h (4 Bft)
04.02.2007 16:00 6,0 C 90 % 1026,5 hPa 0,0 l/m 23,1 km/h (4 Bft) W 0,00 h 0 W/m 4,4 C -2,9 C 23,1 km/h (4 Bft)
04.02.2007 17:00 5,2 C 93 % 1025,8 hPa 0,0 l/m 23,9 km/h (4 Bft) W 0,00 h 0 W/m 4,1 C -4,2 C 23,9 km/h (4 Bft)
04.02.2007 18:00 5,0 C 93 % 1025,3 hPa 0,0 l/m 24,3 km/h (4 Bft) W 0,00 h 0 W/m 4,0 C -4,6 C 24,3 km/h (4 Bft)
04.02.2007 19:00 5,2 C 94 % 1024,5 hPa 0,0 l/m 23,3 km/h (4 Bft) W 0,00 h 0 W/m 4,3 C -4,1 C 23,3 km/h (4 Bft)
04.02.2007 20:00 4,9 C 96 % 1023,5 hPa 0,0 l/m 25,2 km/h (4 Bft) W 0,00 h 0 W/m 4,2 C -5,0 C 25,2 km/h (4 Bft)
04.02.2007 21:00 4,8 C 96 % 1022,8 hPa 0,0 l/m 21,4 km/h (4 Bft) W 0,00 h 0 W/m 4,2 C -4,0 C 21,4 km/h (4 Bft)
04.02.2007 22:00 4,6 C 95 % 1021,5 hPa 0,0 l/m 24,3 km/h (4 Bft) W 0,00 h 0 W/m 3,9 C -5,2 C 24,3 km/h (4 Bft)
04.02.2007 23:00 4,9 C 97 % 1021,5 hPa 0,0 l/m 26,0 km/h (4 Bft) W 0,00 h 0 W/m 4,4 C -5,4 C 26,0 km/h (4 Bft)
Min-Datum _ 04.02.07 29.01.07 31.01.07 - 04.02.07 - - - 29.01.07 31.01.07 04.02.07
_ Min-Zeit 22:46 13:30 13:45 - 08:15 - - - 18:00 09:00 08:15
Minimum _ 4,5 C 81 % 1009,5 hPa - 7,1 km/h (2 Bft) - - - 2,9 C -8,4 C 7,1 km/h (2 Bft)
Max-Datum _ 03.02.07 31.01.07 03.02.07 29.01.07 31.01.07 - 29.01.07 29.01.07 31.01.07 04.02.07 31.01.07
_ Max-Zeit 11:00 16:00 20:15 05:15 12:00 - 00:01 00:01 19:00 08:30 12:00
Maximum _ 8,2 C 99 % 1032,5 hPa 1,8 l/m 47,7 km/h
W (6 Bft)
- 0,00 h 0 W/m 7,3 C 7,2 C 47,7 km/h
W (6 Bft)
Durchschnitt _ 6,5 C 93 % 1022,3 hPa #8,7 l/m 24,7 km/h (4 Bft) NW #0 min. 0 W/m 5,4 C -2,5 C 24,7 km/h (4 Bft)
copyright by Holger Just